Time;durP1;ratioP1;P1;durP2;ratioP2;P2;SDS_P1;SDS_P2;PMS_P1;PMS_P2;Temp;Humidity;BMP_temperature;BMP_pressure;BME280_temperature;BME280_humidity;BME280_pressure;Samples;Min_cycle;Max_cycle;Signal;HPM_P1;HPM_P2
2021/12/06 00:01:19;;;;;;;;;;;0.20;99.90;;;;;;5025722;28;20318;-78
2021/12/06 00:03:58;;;;;;;;;;;0.20;99.90;;;;;;5036063;28;19936;-78
2021/12/06 00:06:25;;;;;;;;;;;0.20;99.90;;;;;;5032834;28;19909;-78
2021/12/06 00:08:51;;;;;;;;;;;0.30;99.90;;;;;;5031233;28;20351;-78
2021/12/06 00:11:17;;;;;;;;;;;0.30;99.90;;;;;;5036265;28;19913;-77
2021/12/06 00:13:44;;;;;;;;;;;0.30;99.90;;;;;;5028699;28;19939;-78
2021/12/06 00:16:14;;;;;;;;;;;0.30;99.90;;;;;;5032164;28;19916;-78
2021/12/06 00:18:40;;;;;;;;;;;0.30;99.90;;;;;;5031064;28;19929;-77
2021/12/06 00:21:06;;;;;;;;;;;0.30;99.90;;;;;;5029163;28;19909;-77
2021/12/06 00:23:31;;;;;;;;;;;0.30;99.90;;;;;;5039242;28;19955;-77
2021/12/06 00:25:57;;;;;;;;;;;0.30;99.90;;;;;;5028260;28;19928;-77
2021/12/06 00:28:23;;;;;;;;;;;0.30;99.90;;;;;;5035669;28;19970;-77
2021/12/06 00:30:49;;;;;;;;;;;0.40;99.90;;;;;;5042684;28;20003;-77
2021/12/06 00:33:15;;;;;;;;;;;0.40;99.90;;;;;;5046448;28;20294;-77
2021/12/06 00:35:40;;;;;;;;;;;0.40;99.90;;;;;;5033553;28;20031;-77
2021/12/06 00:38:06;;;;;;;;;;;0.40;99.90;;;;;;5033488;28;19921;-77
2021/12/06 00:40:36;;;;;;;;;;;0.40;99.90;;;;;;5031342;28;20264;-77
2021/12/06 00:43:02;;;;;;;;;;;0.40;99.90;;;;;;5027214;28;20386;-78
2021/12/06 00:45:28;;;;;;;;;;;0.40;99.90;;;;;;5030797;28;20375;-77
2021/12/06 00:47:55;;;;;;;;;;;0.50;99.90;;;;;;5041062;28;20051;-78
2021/12/06 00:50:22;;;;;;;;;;;0.50;99.90;;;;;;5046244;28;19913;-77
2021/12/06 00:52:48;;;;;;;;;;;0.50;99.90;;;;;;5031326;28;19913;-77
2021/12/06 00:55:13;;;;;;;;;;;0.50;99.90;;;;;;5029016;28;19916;-77
2021/12/06 00:57:40;;;;;;;;;;;0.50;99.90;;;;;;5028224;28;19963;-78
2021/12/06 01:00:09;;;;;;;;;;;0.50;99.90;;;;;;5027773;28;19905;-77
2021/12/06 01:02:35;;;;;;;;;;;0.50;99.90;;;;;;5034167;28;19909;-78
2021/12/06 01:05:00;;;;;;;;;;;0.50;99.90;;;;;;5026518;28;20341;-77
2021/12/06 01:07:26;;;;;;;;;;;0.60;99.90;;;;;;5013547;28;19919;-77
2021/12/06 01:09:52;;;;;;;;;;;0.60;99.90;;;;;;5038094;28;19917;-77
2021/12/06 01:12:17;;;;;;;;;;;0.50;99.90;;;;;;5038542;28;19950;-77
2021/12/06 01:14:43;;;;;;;;;;;0.50;99.90;;;;;;5030101;28;19920;-77
2021/12/06 01:17:09;;;;;;;;;;;0.50;99.90;;;;;;5017111;28;19913;-77
2021/12/06 01:19:37;;;;;;;;;;;0.50;99.90;;;;;;5026634;28;19971;-77
2021/12/06 01:22:30;;;;;;;;;;;0.50;99.90;;;;;;5029574;28;19909;-77
2021/12/06 01:25:01;;;;;;;;;;;0.50;99.90;;;;;;5026778;28;19909;-77
2021/12/06 01:40:14;;;;;;;;;;;0.50;99.90;;;;;;5031513;28;19920;-77
2021/12/06 01:42:39;;;;;;;;;;;0.50;99.90;;;;;;5018424;28;20004;-77
2021/12/06 01:45:07;;;;;;;;;;;0.50;99.90;;;;;;5026017;28;19917;-77
2021/12/06 01:47:36;;;;;;;;;;;0.50;99.90;;;;;;5032476;28;19975;-77
2021/12/06 01:50:08;;;;;;;;;;;0.50;99.90;;;;;;5037768;28;19921;-78
2021/12/06 01:52:39;;;;;;;;;;;0.50;99.90;;;;;;5017696;28;20405;-77
2021/12/06 01:55:07;;;;;;;;;;;0.50;99.90;;;;;;5026903;28;19928;-77
2021/12/06 01:57:34;;;;;;;;;;;0.50;99.90;;;;;;5031005;28;19913;-77
2021/12/06 02:00:00;;;;;;;;;;;0.50;99.90;;;;;;5030666;28;19924;-78
2021/12/06 02:02:27;;;;;;;;;;;0.40;99.90;;;;;;5006360;28;19956;-77
2021/12/06 02:04:53;;;;;;;;;;;0.40;99.90;;;;;;5029855;28;20390;-78
2021/12/06 02:07:20;;;;;;;;;;;0.40;99.90;;;;;;5028311;28;19956;-77
2021/12/06 02:09:50;;;;;;;;;;;0.40;99.90;;;;;;5009697;28;19945;-77
2021/12/06 02:12:16;;;;;;;;;;;0.40;99.90;;;;;;5029937;28;19908;-77
2021/12/06 02:19:40;;;;;;;;;;;0.40;99.90;;;;;;5027218;28;19964;-77
2021/12/06 02:22:07;;;;;;;;;;;0.40;99.90;;;;;;5029789;28;19909;-77
2021/12/06 02:24:35;;;;;;;;;;;0.40;99.90;;;;;;5034873;28;19932;-77
2021/12/06 02:27:01;;;;;;;;;;;0.40;99.90;;;;;;5028334;28;20363;-77
2021/12/06 02:29:28;;;;;;;;;;;0.50;99.90;;;;;;5011115;28;20339;-77
2021/12/06 02:31:54;;;;;;;;;;;0.50;99.90;;;;;;5029337;28;19909;-77
2021/12/06 02:34:19;;;;;;;;;;;0.50;99.90;;;;;;5010270;28;20268;-77
2021/12/06 02:36:48;;;;;;;;;;;0.50;99.90;;;;;;5030376;28;19910;-78
2021/12/06 02:39:21;;;;;;;;;;;0.50;99.90;;;;;;5026789;28;19916;-77
2021/12/06 02:41:48;;;;;;;;;;;0.50;99.90;;;;;;5032657;28;19913;-77
2021/12/06 02:44:15;;;;;;;;;;;0.50;99.90;;;;;;5030890;28;19916;-77
2021/12/06 02:46:41;;;;;;;;;;;0.50;99.90;;;;;;5026224;28;19944;-78
2021/12/06 02:49:06;;;;;;;;;;;0.50;99.90;;;;;;5032646;28;19955;-77
2021/12/06 02:51:32;;;;;;;;;;;0.60;99.90;;;;;;5045827;28;20189;-77
2021/12/06 02:53:58;;;;;;;;;;;0.60;99.90;;;;;;5007559;28;19920;-77
2021/12/06 02:58:56;;;;;;;;;;;0.50;99.90;;;;;;5030072;28;19913;-77
2021/12/06 03:01:26;;;;;;;;;;;0.50;99.90;;;;;;5029848;28;19952;-77
2021/12/06 03:03:53;;;;;;;;;;;0.50;99.90;;;;;;5032835;28;19909;-77
2021/12/06 03:06:19;;;;;;;;;;;0.50;99.90;;;;;;5028602;28;20300;-77
2021/12/06 03:09:01;;;;;;;;;;;0.50;99.90;;;;;;5033196;28;19995;-77
2021/12/06 03:11:28;;;;;;;;;;;0.50;99.90;;;;;;5019365;28;20383;-77
2021/12/06 03:13:54;;;;;;;;;;;0.50;99.90;;;;;;5008346;28;20004;-77
2021/12/06 03:16:21;;;;;;;;;;;0.60;99.90;;;;;;5001940;28;19955;-77
2021/12/06 03:18:48;;;;;;;;;;;0.50;99.90;;;;;;5033736;28;19936;-77
2021/12/06 03:21:15;;;;;;;;;;;0.60;99.90;;;;;;5034924;28;20387;-77
2021/12/06 03:23:41;;;;;;;;;;;0.60;99.90;;;;;;5028698;28;19913;-77
2021/12/06 03:26:07;;;;;;;;;;;0.60;99.90;;;;;;5023517;28;20002;-78
2021/12/06 03:28:37;;;;;;;;;;;0.60;99.90;;;;;;5011105;28;19951;-77
2021/12/06 03:31:06;;;;;;;;;;;0.60;99.90;;;;;;5031335;28;20071;-77
2021/12/06 03:33:35;;;;;;;;;;;0.60;99.90;;;;;;5021497;28;19913;-77
2021/12/06 03:36:02;;;;;;;;;;;0.60;99.90;;;;;;5018669;28;19913;-78
2021/12/06 03:38:27;;;;;;;;;;;0.50;99.90;;;;;;5035611;28;19921;-76
2021/12/06 03:40:53;;;;;;;;;;;0.50;99.90;;;;;;5022648;28;20420;-77
2021/12/06 03:43:19;;;;;;;;;;;0.50;99.90;;;;;;5037574;28;19909;-77
2021/12/06 03:45:45;;;;;;;;;;;0.60;99.90;;;;;;5026200;28;19963;-77
2021/12/06 03:48:11;;;;;;;;;;;0.60;99.90;;;;;;5017260;28;19913;-77
2021/12/06 03:50:36;;;;;;;;;;;0.60;99.90;;;;;;5038575;28;20318;-77
2021/12/06 03:53:02;;;;;;;;;;;0.60;99.90;;;;;;5040198;28;19917;-77
2021/12/06 03:55:28;;;;;;;;;;;0.50;99.90;;;;;;5016382;28;20267;-78
2021/12/06 03:57:53;;;;;;;;;;;0.60;99.90;;;;;;5014675;28;19915;-78
2021/12/06 04:00:19;;;;;;;;;;;0.50;99.90;;;;;;5040766;28;19940;-77
2021/12/06 04:02:52;;;;;;;;;;;0.50;99.90;;;;;;5040466;28;19908;-78
2021/12/06 04:05:20;;;;;;;;;;;0.60;99.90;;;;;;5027651;28;20004;-77
2021/12/06 04:07:45;;;;;;;;;;;0.50;99.90;;;;;;5031988;28;20016;-77
2021/12/06 04:10:11;;;;;;;;;;;0.40;99.90;;;;;;5014939;28;20354;-77
2021/12/06 04:12:37;;;;;;;;;;;0.40;99.90;;;;;;5011705;28;19917;-78
2021/12/06 04:15:07;;;;;;;;;;;0.30;99.90;;;;;;5030991;28;19967;-77
2021/12/06 04:17:32;;;;;;;;;;;0.40;99.90;;;;;;5029882;28;19913;-78
2021/12/06 04:19:59;;;;;;;;;;;0.30;99.90;;;;;;5047933;28;19960;-77
2021/12/06 04:22:25;;;;;;;;;;;0.30;99.90;;;;;;5031739;28;19913;-77
2021/12/06 04:24:52;;;;;;;;;;;0.30;99.90;;;;;;5013943;28;19905;-78
2021/12/06 04:27:21;;;;;;;;;;;0.30;99.90;;;;;;5035920;28;20012;-77
2021/12/06 04:29:49;;;;;;;;;;;0.30;99.90;;;;;;5026844;28;19963;-77
2021/12/06 04:32:17;;;;;;;;;;;0.30;99.90;;;;;;5021246;28;19921;-77
2021/12/06 04:34:42;;;;;;;;;;;0.40;99.90;;;;;;5027549;28;20298;-78
2021/12/06 04:37:11;;;;;;;;;;;0.40;99.90;;;;;;5034221;28;19913;-77
2021/12/06 04:39:37;;;;;;;;;;;0.40;99.90;;;;;;5038536;28;19913;-78
2021/12/06 04:42:03;;;;;;;;;;;0.40;99.90;;;;;;5030662;28;19916;-78
2021/12/06 04:44:30;;;;;;;;;;;0.40;99.90;;;;;;5016777;28;20000;-77
2021/12/06 04:46:56;;;;;;;;;;;0.40;99.90;;;;;;5028031;28;20019;-77
2021/12/06 04:49:25;;;;;;;;;;;0.40;99.90;;;;;;5014176;28;19963;-77
2021/12/06 04:51:51;;;;;;;;;;;0.40;99.90;;;;;;5026584;28;19967;-77
2021/12/06 04:54:20;;;;;;;;;;;0.40;99.90;;;;;;5030599;28;19924;-77
2021/12/06 04:56:50;;;;;;;;;;;0.40;99.90;;;;;;5030333;28;19962;-77
2021/12/06 04:59:16;;;;;;;;;;;0.40;99.90;;;;;;5033972;28;19920;-77
2021/12/06 05:01:45;;;;;;;;;;;0.40;99.90;;;;;;5042656;28;19913;-78
2021/12/06 05:04:15;;;;;;;;;;;0.40;99.90;;;;;;5026328;28;19909;-78
2021/12/06 05:06:44;;;;;;;;;;;0.40;99.90;;;;;;5032763;28;19909;-78
2021/12/06 05:09:13;;;;;;;;;;;0.40;99.90;;;;;;5026496;28;20436;-78
2021/12/06 05:11:39;;;;;;;;;;;0.40;99.90;;;;;;5015639;28;19920;-78
2021/12/06 05:14:05;;;;;;;;;;;0.40;99.90;;;;;;5010826;28;19968;-78
2021/12/06 05:16:33;;;;;;;;;;;0.40;99.90;;;;;;5040367;22;19980;-78
2021/12/06 05:18:59;;;;;;;;;;;0.40;99.90;;;;;;5044045;28;19956;-77
2021/12/06 05:21:25;;;;;;;;;;;0.40;99.90;;;;;;5023156;28;19984;-79
2021/12/06 05:23:52;;;;;;;;;;;0.40;99.90;;;;;;5002015;28;19921;-79
2021/12/06 05:26:18;;;;;;;;;;;0.30;99.90;;;;;;5013439;28;19910;-79
2021/12/06 05:28:47;;;;;;;;;;;0.30;99.90;;;;;;5000214;28;19921;-78
2021/12/06 05:31:15;;;;;;;;;;;0.30;99.90;;;;;;5028620;28;19921;-79
2021/12/06 05:33:43;;;;;;;;;;;0.30;99.90;;;;;;5008601;28;19964;-78
2021/12/06 05:36:09;;;;;;;;;;;0.30;99.90;;;;;;5008198;28;19909;-77
2021/12/06 05:38:35;;;;;;;;;;;0.30;99.90;;;;;;5001557;28;20066;-78
2021/12/06 05:41:01;;;;;;;;;;;0.30;99.90;;;;;;5009835;28;19914;-78
2021/12/06 05:43:26;;;;;;;;;;;0.30;99.90;;;;;;5030096;28;19957;-79
2021/12/06 05:45:52;;;;;;;;;;;0.40;99.90;;;;;;5015498;28;19945;-79
2021/12/06 05:48:18;;;;;;;;;;;0.30;99.90;;;;;;5001298;28;19910;-77
2021/12/06 05:50:47;;;;;;;;;;;0.40;99.90;;;;;;5006923;28;19941;-77
2021/12/06 05:53:13;;;;;;;;;;;0.30;99.90;;;;;;5014443;28;19918;-79
2021/12/06 05:55:39;;;;;;;;;;;0.30;99.90;;;;;;5008463;28;20139;-79
2021/12/06 05:58:05;;;;;;;;;;;0.30;99.90;;;;;;4997086;28;20027;-78
2021/12/06 06:00:32;;;;;;;;;;;0.30;99.90;;;;;;5012208;28;19970;-78
2021/12/06 06:02:59;;;;;;;;;;;0.30;99.90;;;;;;4989989;28;19948;-78
2021/12/06 06:05:25;;;;;;;;;;;0.30;99.90;;;;;;5000051;28;19960;-79
2021/12/06 06:07:50;;;;;;;;;;;0.30;99.90;;;;;;5005641;28;19910;-78
2021/12/06 06:10:16;;;;;;;;;;;0.40;99.90;;;;;;5021147;28;20422;-78
2021/12/06 06:12:42;;;;;;;;;;;0.40;99.90;;;;;;5009589;28;20307;-79
2021/12/06 06:15:08;;;;;;;;;;;0.30;99.90;;;;;;4990909;28;19967;-79
2021/12/06 06:17:40;;;;;;;;;;;0.20;99.90;;;;;;4998231;28;19918;-80
2021/12/06 06:20:07;;;;;;;;;;;0.20;99.90;;;;;;5004947;28;19921;-78
2021/12/06 06:22:33;;;;;;;;;;;0.10;99.90;;;;;;5021178;28;19921;-78
2021/12/06 06:24:58;;;;;;;;;;;0.10;99.90;;;;;;5000419;28;19914;-79
2021/12/06 06:27:24;;;;;;;;;;;0.10;99.90;;;;;;5010140;28;19967;-81
2021/12/06 06:29:50;;;;;;;;;;;0.00;99.90;;;;;;5007741;28;19917;-80
2021/12/06 06:32:15;;;;;;;;;;;0.00;99.90;;;;;;5002218;28;20008;-79
2021/12/06 06:34:41;;;;;;;;;;;0.00;99.90;;;;;;5007735;28;19913;-79
2021/12/06 06:37:06;;;;;;;;;;;0.00;99.90;;;;;;5001350;28;19936;-80
2021/12/06 06:39:32;;;;;;;;;;;0.00;99.90;;;;;;5007372;28;19929;-80
2021/12/06 06:41:57;;;;;;;;;;;0.00;99.90;;;;;;5001068;28;19980;-78
2021/12/06 06:44:23;;;;;;;;;;;0.00;99.90;;;;;;4997477;28;19917;-80
2021/12/06 06:46:50;;;;;;;;;;;0.00;99.90;;;;;;5004288;28;19910;-80
2021/12/06 06:49:16;;;;;;;;;;;0.00;99.90;;;;;;5000976;28;19914;-78
2021/12/06 06:51:41;;;;;;;;;;;-0.10;99.90;;;;;;5012350;28;19913;-79
2021/12/06 06:54:07;;;;;;;;;;;-0.10;99.90;;;;;;5007051;28;19917;-80
2021/12/06 06:56:34;;;;;;;;;;;-0.10;99.90;;;;;;5007701;28;19945;-80
2021/12/06 06:58:59;;;;;;;;;;;0.00;99.90;;;;;;5000456;28;19917;-81
2021/12/06 07:01:25;;;;;;;;;;;0.00;99.90;;;;;;4999893;28;19909;-80
2021/12/06 07:03:53;;;;;;;;;;;0.10;99.90;;;;;;5009029;28;20283;-81
2021/12/06 07:06:20;;;;;;;;;;;0.10;99.90;;;;;;5012527;28;19909;-81
2021/12/06 07:08:46;;;;;;;;;;;0.10;99.90;;;;;;5000869;28;19922;-79
2021/12/06 07:11:11;;;;;;;;;;;0.00;99.90;;;;;;5005764;28;20354;-81
2021/12/06 07:13:38;;;;;;;;;;;0.00;99.90;;;;;;4998153;28;19914;-80
2021/12/06 07:16:05;;;;;;;;;;;0.00;99.90;;;;;;4998532;28;20294;-76
2021/12/06 07:18:31;;;;;;;;;;;0.00;99.90;;;;;;5001188;28;19918;-80
2021/12/06 07:20:57;;;;;;;;;;;0.00;99.90;;;;;;5002085;28;20063;-77
2021/12/06 07:23:22;;;;;;;;;;;0.10;99.90;;;;;;5004493;28;20008;-78
2021/12/06 07:25:48;;;;;;;;;;;0.00;99.90;;;;;;4999019;28;19925;-79
2021/12/06 07:28:13;;;;;;;;;;;0.00;99.90;;;;;;4996856;28;19997;-79
2021/12/06 07:30:39;;;;;;;;;;;0.00;99.90;;;;;;5004356;28;20376;-80
2021/12/06 07:33:05;;;;;;;;;;;-0.10;99.90;;;;;;4994523;28;19922;-79
2021/12/06 07:35:31;;;;;;;;;;;-0.10;99.90;;;;;;5004922;28;19953;-80
2021/12/06 07:37:57;;;;;;;;;;;-0.10;99.90;;;;;;4998583;28;19913;-78
2021/12/06 07:40:23;;;;;;;;;;;-0.20;99.90;;;;;;4995653;28;19940;-78
2021/12/06 07:42:49;;;;;;;;;;;-0.20;99.90;;;;;;4997785;28;19921;-80
2021/12/06 07:45:15;;;;;;;;;;;-0.20;99.90;;;;;;4961722;28;19913;-77
2021/12/06 07:47:41;;;;;;;;;;;-0.30;99.90;;;;;;4995214;28;20296;-80
2021/12/06 07:50:09;;;;;;;;;;;-0.20;99.90;;;;;;4991553;28;19963;-79
2021/12/06 07:52:35;;;;;;;;;;;-0.20;99.90;;;;;;4996489;28;19914;-78
2021/12/06 07:55:03;;;;;;;;;;;-0.20;99.90;;;;;;5018149;28;19910;-79
2021/12/06 07:57:29;;;;;;;;;;;-0.10;99.90;;;;;;5007865;28;19910;-80
2021/12/06 07:59:55;;;;;;;;;;;-0.10;99.90;;;;;;5005734;28;20359;-79
2021/12/06 08:02:21;;;;;;;;;;;0.00;99.90;;;;;;5004227;28;19933;-79
2021/12/06 08:04:49;;;;;;;;;;;0.00;99.90;;;;;;5002263;28;19941;-77
2021/12/06 08:07:15;;;;;;;;;;;0.10;99.90;;;;;;5009885;28;19914;-78
2021/12/06 08:09:40;;;;;;;;;;;0.10;99.90;;;;;;4997665;28;20268;-78
2021/12/06 08:12:06;;;;;;;;;;;0.20;99.90;;;;;;5002659;28;19921;-80
2021/12/06 08:14:31;;;;;;;;;;;0.20;99.90;;;;;;5010687;28;19913;-80
2021/12/06 08:16:57;;;;;;;;;;;0.20;99.90;;;;;;5005214;28;20008;-80
2021/12/06 08:19:23;;;;;;;;;;;0.20;99.90;;;;;;5001978;28;20002;-80
2021/12/06 08:21:49;;;;;;;;;;;0.30;99.90;;;;;;5007876;28;19921;-80
2021/12/06 08:24:15;;;;;;;;;;;0.30;99.90;;;;;;5010620;28;19917;-78
2021/12/06 08:26:41;;;;;;;;;;;0.30;99.90;;;;;;5015470;28;19941;-78
2021/12/06 08:29:08;;;;;;;;;;;0.30;99.90;;;;;;5005495;28;19933;-79
2021/12/06 08:31:34;;;;;;;;;;;0.30;99.90;;;;;;5015333;28;19919;-79
2021/12/06 08:33:59;;;;;;;;;;;0.40;99.90;;;;;;5007690;28;19920;-80
2021/12/06 08:36:25;;;;;;;;;;;0.50;99.90;;;;;;5010580;28;20330;-79
2021/12/06 08:38:51;;;;;;;;;;;0.50;99.90;;;;;;5005589;28;19952;-79
2021/12/06 08:41:19;;;;;;;;;;;0.50;99.90;;;;;;5027854;28;19975;-78
2021/12/06 08:43:46;;;;;;;;;;;0.50;99.90;;;;;;5000736;28;19921;-77
2021/12/06 08:46:15;;;;;;;;;;;0.50;99.90;;;;;;5017184;28;19924;-80
2021/12/06 08:48:42;;;;;;;;;;;0.60;99.90;;;;;;5002858;28;19924;-78
2021/12/06 08:51:09;;;;;;;;;;;0.70;99.90;;;;;;4988826;28;20439;-78
2021/12/06 08:53:35;;;;;;;;;;;0.70;99.90;;;;;;5001433;28;19920;-80
2021/12/06 08:56:00;;;;;;;;;;;0.80;99.90;;;;;;5008630;28;19909;-79
2021/12/06 08:58:26;;;;;;;;;;;0.90;99.90;;;;;;4993953;28;20346;-79
2021/12/06 09:00:52;;;;;;;;;;;0.90;99.90;;;;;;5004335;28;19916;-80
2021/12/06 09:03:18;;;;;;;;;;;1.00;99.90;;;;;;5028778;28;19909;-79
2021/12/06 09:05:45;;;;;;;;;;;1.10;99.90;;;;;;4983522;28;19920;-78
2021/12/06 09:08:11;;;;;;;;;;;1.10;99.90;;;;;;5002820;28;19953;-80
2021/12/06 09:10:37;;;;;;;;;;;1.10;99.90;;;;;;4992042;28;19920;-79
2021/12/06 09:13:04;;;;;;;;;;;1.20;99.90;;;;;;5011415;28;19992;-79
2021/12/06 09:15:29;;;;;;;;;;;1.20;99.90;;;;;;5015798;28;19916;-79
2021/12/06 09:17:55;;;;;;;;;;;1.20;99.90;;;;;;5000722;28;19980;-78
2021/12/06 09:20:22;;;;;;;;;;;1.20;99.90;;;;;;5010896;28;19913;-79
2021/12/06 09:22:48;;;;;;;;;;;1.30;99.90;;;;;;5010132;28;20004;-80
2021/12/06 09:25:15;;;;;;;;;;;1.30;99.90;;;;;;5005260;28;19964;-79
2021/12/06 09:27:41;;;;;;;;;;;1.30;99.90;;;;;;5012067;28;20003;-78
2021/12/06 09:30:09;;;;;;;;;;;1.40;99.90;;;;;;5003545;28;20393;-78
2021/12/06 09:32:34;;;;;;;;;;;1.50;99.90;;;;;;5004864;28;19952;-81
2021/12/06 09:35:00;;;;;;;;;;;1.50;99.90;;;;;;4998711;28;19914;-81
2021/12/06 09:37:26;;;;;;;;;;;1.50;99.90;;;;;;4990381;28;19929;-78
2021/12/06 09:39:52;;;;;;;;;;;1.50;99.90;;;;;;4992969;28;19917;-78
2021/12/06 09:42:22;;;;;;;;;;;1.50;99.90;;;;;;5014555;28;20334;-80
2021/12/06 09:44:47;;;;;;;;;;;1.60;99.90;;;;;;4998220;28;19916;-80
2021/12/06 09:47:13;;;;;;;;;;;1.60;99.90;;;;;;4989873;28;19922;-79
2021/12/06 09:49:39;;;;;;;;;;;1.60;99.90;;;;;;5010326;28;19936;-79
2021/12/06 09:52:06;;;;;;;;;;;1.60;99.90;;;;;;4994873;28;19921;-78
2021/12/06 09:54:36;;;;;;;;;;;1.70;99.90;;;;;;4998172;28;20486;-78
2021/12/06 09:57:03;;;;;;;;;;;1.70;99.90;;;;;;4989600;28;19920;-79
2021/12/06 09:59:30;;;;;;;;;;;1.80;99.90;;;;;;4994239;28;19925;-78
2021/12/06 10:02:04;;;;;;;;;;;1.90;99.90;;;;;;5001549;28;19905;-80
2021/12/06 10:04:31;;;;;;;;;;;1.90;99.90;;;;;;5003695;28;19917;-78
2021/12/06 10:06:57;;;;;;;;;;;1.90;99.90;;;;;;4999691;28;19917;-79
2021/12/06 10:09:23;;;;;;;;;;;1.80;99.90;;;;;;4990196;28;20005;-78
2021/12/06 10:11:49;;;;;;;;;;;1.90;99.90;;;;;;5003474;28;19910;-79
2021/12/06 10:14:15;;;;;;;;;;;1.90;99.90;;;;;;5008710;28;19910;-78
2021/12/06 10:16:42;;;;;;;;;;;1.90;99.90;;;;;;5002903;28;19918;-78
2021/12/06 10:19:08;;;;;;;;;;;1.90;99.90;;;;;;5000191;28;19974;-79
2021/12/06 10:21:34;;;;;;;;;;;1.90;99.90;;;;;;5006019;28;19917;-80
2021/12/06 10:24:00;;;;;;;;;;;2.00;99.90;;;;;;4991931;28;20363;-79
2021/12/06 10:26:27;;;;;;;;;;;2.00;99.90;;;;;;4989706;28;19909;-80
2021/12/06 10:28:58;;;;;;;;;;;2.00;99.90;;;;;;4979525;28;20135;-78
2021/12/06 10:31:23;;;;;;;;;;;2.00;99.90;;;;;;4995981;28;19940;-78
2021/12/06 10:33:49;;;;;;;;;;;2.10;99.90;;;;;;4974305;28;19906;-79
2021/12/06 10:36:16;;;;;;;;;;;2.10;99.90;;;;;;4995440;28;19916;-77
2021/12/06 10:38:43;;;;;;;;;;;2.10;99.90;;;;;;5010767;28;20012;-79
2021/12/06 10:41:10;;;;;;;;;;;2.20;99.90;;;;;;5010331;28;20148;-79
2021/12/06 10:43:37;;;;;;;;;;;2.20;99.90;;;;;;5002168;28;19914;-79
2021/12/06 10:46:03;;;;;;;;;;;2.30;99.90;;;;;;4978830;28;19913;-79
2021/12/06 10:48:30;;;;;;;;;;;2.30;99.90;;;;;;5002280;28;20005;-79
2021/12/06 10:51:02;;;;;;;;;;;2.30;99.90;;;;;;4997605;28;19921;-78
2021/12/06 10:53:33;;;;;;;;;;;2.40;99.90;;;;;;4995009;28;20296;-78
2021/12/06 10:55:59;;;;;;;;;;;2.40;99.90;;;;;;5000948;28;19909;-79
2021/12/06 10:58:26;;;;;;;;;;;2.40;99.90;;;;;;5010668;28;20047;-79
2021/12/06 11:00:54;;;;;;;;;;;2.50;99.90;;;;;;4998670;28;19957;-78
2021/12/06 11:03:19;;;;;;;;;;;2.50;99.90;;;;;;5006435;28;20371;-79
2021/12/06 11:05:48;;;;;;;;;;;2.50;99.90;;;;;;5000834;28;19963;-78
2021/12/06 11:08:15;;;;;;;;;;;2.50;99.90;;;;;;4998374;28;20033;-80
2021/12/06 11:10:44;;;;;;;;;;;2.50;99.90;;;;;;5004603;28;19921;-80
2021/12/06 11:13:10;;;;;;;;;;;2.50;99.90;;;;;;4999745;28;20573;-78
2021/12/06 11:15:49;;;;;;;;;;;2.50;99.90;;;;;;5009189;28;20356;-79
2021/12/06 11:18:27;;;;;;;;;;;2.50;99.90;;;;;;4996124;28;19992;-80
2021/12/06 11:20:53;;;;;;;;;;;2.50;99.90;;;;;;5003611;28;19916;-79
2021/12/06 11:23:18;;;;;;;;;;;2.60;99.90;;;;;;4996231;28;19909;-79
2021/12/06 11:25:53;;;;;;;;;;;2.50;99.90;;;;;;4988471;28;19921;-78
2021/12/06 11:28:26;;;;;;;;;;;2.50;99.90;;;;;;5007014;28;19949;-78
2021/12/06 11:30:56;;;;;;;;;;;2.50;99.90;;;;;;4990501;28;20008;-79
2021/12/06 11:33:29;;;;;;;;;;;2.60;99.90;;;;;;4990673;28;19918;-80
2021/12/06 11:35:55;;;;;;;;;;;2.60;99.90;;;;;;5003357;28;19921;-79
2021/12/06 11:38:21;;;;;;;;;;;2.70;99.90;;;;;;4971235;28;19914;-80
2021/12/06 11:40:46;;;;;;;;;;;2.60;99.90;;;;;;4995025;28;19914;-79
2021/12/06 11:43:14;;;;;;;;;;;2.60;99.90;;;;;;4995789;28;19909;-79
2021/12/06 11:45:42;;;;;;;;;;;2.60;99.90;;;;;;4987103;28;19909;-78
2021/12/06 11:48:14;;;;;;;;;;;2.60;99.90;;;;;;4980777;28;19909;-80
2021/12/06 11:50:41;;;;;;;;;;;2.70;99.90;;;;;;4988893;28;19909;-81
2021/12/06 11:53:07;;;;;;;;;;;2.70;99.90;;;;;;4969886;28;20299;-81
2021/12/06 11:55:33;;;;;;;;;;;2.70;99.90;;;;;;5000537;28;19913;-79
2021/12/06 11:57:59;;;;;;;;;;;2.60;99.90;;;;;;4994457;28;19917;-80
2021/12/06 12:00:25;;;;;;;;;;;2.70;99.90;;;;;;5008982;28;19913;-79
2021/12/06 12:02:55;;;;;;;;;;;2.60;99.90;;;;;;5011830;28;19910;-81
2021/12/06 12:05:37;;;;;;;;;;;2.60;99.90;;;;;;5008594;28;19910;-79
2021/12/06 12:08:07;;;;;;;;;;;2.60;99.90;;;;;;5003337;28;19913;-81
2021/12/06 12:10:38;;;;;;;;;;;2.70;99.90;;;;;;5007722;28;19915;-78
2021/12/06 12:13:04;;;;;;;;;;;2.70;99.90;;;;;;5001962;28;19914;-80
2021/12/06 12:15:30;;;;;;;;;;;2.80;99.90;;;;;;5016438;28;19933;-82
2021/12/06 12:17:56;;;;;;;;;;;2.80;99.90;;;;;;4980960;28;20388;-78
2021/12/06 12:20:23;;;;;;;;;;;2.90;99.90;;;;;;5007899;28;19969;-79
2021/12/06 12:22:50;;;;;;;;;;;2.90;99.90;;;;;;5011527;28;19924;-79
2021/12/06 12:25:26;;;;;;;;;;;3.00;99.90;;;;;;4992463;28;19914;-81
2021/12/06 12:30:18;;;;;;;;;;;2.90;99.90;;;;;;4987185;28;19920;-78
2021/12/06 12:32:43;;;;;;;;;;;2.90;99.90;;;;;;4979652;28;19917;-81
2021/12/06 12:35:10;;;;;;;;;;;2.90;99.90;;;;;;4988328;28;20334;-79
2021/12/06 12:37:37;;;;;;;;;;;3.00;99.90;;;;;;4990483;28;19916;-78
2021/12/06 12:40:08;;;;;;;;;;;2.90;99.90;;;;;;4997837;28;19913;-80
2021/12/06 12:42:34;;;;;;;;;;;2.90;99.90;;;;;;5015535;28;20494;-79
2021/12/06 12:45:00;;;;;;;;;;;2.90;99.90;;;;;;4995478;28;20030;-80
2021/12/06 12:47:27;;;;;;;;;;;2.90;99.90;;;;;;4982124;28;20154;-79
2021/12/06 12:49:57;;;;;;;;;;;2.90;99.90;;;;;;4975980;28;19925;-79
2021/12/06 12:52:40;;;;;;;;;;;2.90;99.90;;;;;;5008503;28;19940;-77
2021/12/06 12:55:19;;;;;;;;;;;2.90;99.90;;;;;;4989674;28;19924;-80
2021/12/06 12:57:45;;;;;;;;;;;2.90;99.90;;;;;;4990274;28;20375;-79
2021/12/06 13:00:16;;;;;;;;;;;3.00;99.90;;;;;;5007745;28;19959;-80
2021/12/06 13:02:42;;;;;;;;;;;2.90;99.90;;;;;;5002882;28;19909;-80
2021/12/06 13:05:13;;;;;;;;;;;2.90;99.90;;;;;;4995383;28;19920;-82
2021/12/06 13:07:38;;;;;;;;;;;2.90;99.90;;;;;;4992773;28;19944;-81
2021/12/06 13:10:39;;;;;;;;;;;2.90;99.90;;;;;;4983187;28;19917;-80
2021/12/06 13:13:10;;;;;;;;;;;2.80;99.90;;;;;;4933686;29;19922;-82
2021/12/06 13:15:55;;;;;;;;;;;2.80;99.90;;;;;;4994244;28;19910;-82
2021/12/06 13:21:48;;;;;;;;;;;2.80;99.90;;;;;;4985957;28;19959;-79
2021/12/06 13:24:15;;;;;;;;;;;2.80;99.90;;;;;;4967666;28;20016;-83
2021/12/06 13:26:43;;;;;;;;;;;2.70;99.90;;;;;;4998979;28;19909;-82
2021/12/06 13:29:10;;;;;;;;;;;2.70;99.90;;;;;;4988009;28;19971;-79
2021/12/06 13:31:36;;;;;;;;;;;2.70;99.90;;;;;;5017079;28;20350;-81
2021/12/06 13:34:18;;;;;;;;;;;2.70;99.90;;;;;;4995995;28;19913;-80
2021/12/06 13:36:45;;;;;;;;;;;2.70;99.90;;;;;;5001613;28;19952;-82
2021/12/06 13:39:29;;;;;;;;;;;2.70;99.90;;;;;;4972080;28;19913;-80
2021/12/06 13:41:56;;;;;;;;;;;2.60;99.90;;;;;;5004777;28;19957;-82
2021/12/06 13:44:36;;;;;;;;;;;2.60;99.90;;;;;;4996389;28;20402;-79
2021/12/06 13:47:07;;;;;;;;;;;2.60;99.90;;;;;;5000503;28;19910;-78
2021/12/06 13:49:32;;;;;;;;;;;2.60;99.90;;;;;;4992280;28;19909;-80
2021/12/06 13:52:00;;;;;;;;;;;2.60;99.90;;;;;;4997111;28;19909;-80
2021/12/06 13:54:26;;;;;;;;;;;2.50;99.90;;;;;;4986232;28;19956;-79
2021/12/06 13:57:02;;;;;;;;;;;2.50;99.90;;;;;;5007134;28;19952;-80
2021/12/06 13:59:39;;;;;;;;;;;2.50;99.90;;;;;;4996234;28;19918;-80
2021/12/06 14:02:07;;;;;;;;;;;2.50;99.90;;;;;;5007579;28;20054;-79
2021/12/06 14:04:34;;;;;;;;;;;2.50;99.90;;;;;;5002900;28;19920;-80
2021/12/06 14:07:02;;;;;;;;;;;2.50;99.90;;;;;;4968834;28;20016;-79
2021/12/06 14:09:30;;;;;;;;;;;2.50;99.90;;;;;;5008448;28;20374;-80
2021/12/06 14:11:57;;;;;;;;;;;2.50;99.90;;;;;;5022339;28;19917;-79
2021/12/06 14:14:24;;;;;;;;;;;2.40;99.90;;;;;;5000660;28;19913;-78
2021/12/06 14:16:50;;;;;;;;;;;2.40;99.90;;;;;;4996256;28;20702;-79
2021/12/06 14:19:16;;;;;;;;;;;2.40;99.90;;;;;;4998177;28;19978;-79
2021/12/06 14:21:43;;;;;;;;;;;2.40;99.90;;;;;;5000312;28;20372;-78
2021/12/06 14:24:10;;;;;;;;;;;2.30;99.90;;;;;;4975041;28;19920;-81
2021/12/06 14:26:41;;;;;;;;;;;2.30;99.90;;;;;;4992807;28;19921;-77
2021/12/06 14:29:17;;;;;;;;;;;2.30;99.90;;;;;;4970868;28;19910;-78
2021/12/06 14:31:43;;;;;;;;;;;2.20;99.90;;;;;;4995217;28;20497;-78
2021/12/06 14:34:10;;;;;;;;;;;2.20;99.90;;;;;;5006070;28;19909;-80
2021/12/06 14:36:36;;;;;;;;;;;2.10;99.90;;;;;;4990466;28;20372;-81
2021/12/06 14:39:10;;;;;;;;;;;2.20;99.90;;;;;;4961837;28;19933;-79
2021/12/06 14:41:35;;;;;;;;;;;2.10;99.90;;;;;;4991112;28;19937;-79
2021/12/06 14:44:01;;;;;;;;;;;2.10;99.90;;;;;;4988979;28;20324;-80
2021/12/06 14:46:27;;;;;;;;;;;2.00;99.90;;;;;;4985458;28;19945;-78
2021/12/06 14:48:53;;;;;;;;;;;2.00;99.90;;;;;;4991210;28;20730;-79
2021/12/06 14:51:18;;;;;;;;;;;2.00;99.90;;;;;;4990439;28;19976;-79
2021/12/06 14:58:57;;;;;;;;;;;1.90;99.90;;;;;;4994891;28;19964;-80
2021/12/06 15:01:29;;;;;;;;;;;1.90;99.90;;;;;;4996152;28;19921;-80